Leni P. — A8XW5 — position and weather

sailwx.info

Track history (hours):
 
Tides and Currents Weather Stations Pressure Air Temp Water Temp Dewpoint Dewpoint Depression Visibility Wind Speed Wind Dir Waves Ship Positions

Leni P.

Last reported at 2016-Jul-31 08:04 UTC. Time now 2016-Jul-31 09:29 UTC.
Position N 36°14' E 023°19'.

Length 274 m; draft 8.9 m.

Type: Tanker. MMSI: 636014986.

Date/timePositionNaut miles runAvg speedWind from/ knotsBaromVisibWave heightAir tempDewpointWater temp
2016-Jul-31 08:04N 36°14' E 023°19'811.3
2016-Jul-31 07:22N 36°07' E 023°14'26 2.8
2016-Jul-30 22:07N 35°49' E 022°50'0 0.8
2016-Jul-30 21:33N 35°49' E 022°50'6 0.8
2016-Jul-30 14:31N 35°54' E 022°45'  
2016-Jul-28 00:32N 40°26' E 018°41'  
2016-Jul-24 21:33N 44°11' E 014°19'2612.4
2016-Jul-24 19:27N 43°46' E 014°33'1312.3
2016-Jul-24 18:25N 43°34' E 014°40'1112.0
2016-Jul-24 17:31N 43°25' E 014°48'1212.1
2016-Jul-24 16:34N 43°17' E 014°58'1212.0
2016-Jul-24 15:33N 43°08' E 015°10'1211.8
2016-Jul-24 14:33N 42°59' E 015°20'1211.5
2016-Jul-24 13:33N 42°51' E 015°31'15411.8
2016-Jul-24 00:34N 41°12' E 018°10'359 9.1
2016-Jul-22 09:17N 37°14' E 023°57'1011.9
2016-Jul-22 08:29N 37°23' E 024°03'1212.6
2016-Jul-22 07:30N 37°34' E 024°10'6412.2
2016-Jul-22 02:15N 38°27' E 024°55'912.6
2016-Jul-22 01:33N 38°35' E 024°60'1912.6
2016-Jul-22 00:03N 38°52' E 025°10'6212.7
2016-Jul-21 19:08N 39°48' E 025°45'  
Track history (hours):
 
Tides and Currents Weather Stations Pressure Air Temp Water Temp Dewpoint Dewpoint Depression Visibility Wind Speed Wind Dir Waves Ship Positions

Leni P.

Last reported at 2016-Jul-31 08:04 UTC. Time now 2016-Jul-31 09:29 UTC.
Position N 36°14' E 023°19'.

Length 274 m; draft 8.9 m.

Type: Tanker. MMSI: 636014986.

Date/timePositionNaut miles runAvg speedWind from/ knotsBaromVisibWave heightAir tempDewpointWater temp
2016-Jul-31 08:04N 36°14' E 023°19'811.3
2016-Jul-31 07:22N 36°07' E 023°14'26 2.8
2016-Jul-30 22:07N 35°49' E 022°50'0 0.8
2016-Jul-30 21:33N 35°49' E 022°50'6 0.8
2016-Jul-30 14:31N 35°54' E 022°45'  
2016-Jul-28 00:32N 40°26' E 018°41'  
2016-Jul-24 21:33N 44°11' E 014°19'2612.4
2016-Jul-24 19:27N 43°46' E 014°33'1312.3
2016-Jul-24 18:25N 43°34' E 014°40'1112.0
2016-Jul-24 17:31N 43°25' E 014°48'1212.1
2016-Jul-24 16:34N 43°17' E 014°58'1212.0
2016-Jul-24 15:33N 43°08' E 015°10'1211.8
2016-Jul-24 14:33N 42°59' E 015°20'1211.5
2016-Jul-24 13:33N 42°51' E 015°31'15411.8
2016-Jul-24 00:34N 41°12' E 018°10'359 9.1
2016-Jul-22 09:17N 37°14' E 023°57'1011.9
2016-Jul-22 08:29N 37°23' E 024°03'1212.6
2016-Jul-22 07:30N 37°34' E 024°10'6412.2
2016-Jul-22 02:15N 38°27' E 024°55'912.6
2016-Jul-22 01:33N 38°35' E 024°60'1912.6
2016-Jul-22 00:03N 38°52' E 025°10'6212.7
2016-Jul-21 19:08N 39°48' E 025°45'  

Dump ship's entire track history